createdAt,value
2019-05-10T00:00:18.081Z,11.70
2019-05-10T00:03:04.800Z,11.70
2019-05-10T00:05:51.748Z,11.70
2019-05-10T00:08:38.754Z,11.80
2019-05-10T00:11:32.631Z,11.90
2019-05-10T00:14:11.224Z,11.90
2019-05-10T00:16:43.856Z,11.90
2019-05-10T00:19:12.842Z,11.90
2019-05-10T00:21:41.774Z,12.00
2019-05-10T00:24:10.699Z,12.00
2019-05-10T00:26:39.736Z,11.90
2019-05-10T00:29:08.655Z,12.00
2019-05-10T00:31:37.441Z,12.00
2019-05-10T00:34:06.379Z,12.00
2019-05-10T00:36:35.314Z,12.10
2019-05-10T00:39:05.396Z,12.00
2019-05-10T00:41:34.232Z,12.10
2019-05-10T00:44:03.115Z,12.10
2019-05-10T00:46:31.945Z,12.00
2019-05-10T00:49:00.952Z,12.00
2019-05-10T00:51:29.912Z,11.90
2019-05-10T00:53:58.699Z,11.90
2019-05-10T00:56:27.669Z,11.90
2019-05-10T00:58:56.507Z,11.90
2019-05-10T01:01:25.381Z,11.90
2019-05-10T01:03:54.251Z,11.90
2019-05-10T01:06:23.043Z,12.00
2019-05-10T01:08:52.093Z,11.90
2019-05-10T01:11:21.009Z,11.90
2019-05-10T01:13:49.779Z,12.00
2019-05-10T01:16:18.673Z,11.90
2019-05-10T01:18:47.539Z,11.90
2019-05-10T01:21:16.402Z,11.90
2019-05-10T01:23:45.423Z,12.00
2019-05-10T01:26:14.337Z,12.00
2019-05-10T01:28:43.345Z,11.90
2019-05-10T01:31:12.205Z,11.90
2019-05-10T01:33:41.183Z,11.90
2019-05-10T01:36:10.090Z,11.90
2019-05-10T01:38:39.013Z,12.00
2019-05-10T01:41:07.901Z,12.00
2019-05-10T01:43:36.831Z,12.10
2019-05-10T01:46:06.739Z,12.10
2019-05-10T01:48:35.637Z,12.10
2019-05-10T01:51:04.633Z,12.10
2019-05-10T01:53:33.490Z,12.20
2019-05-10T01:56:02.311Z,12.20
2019-05-10T01:58:31.179Z,12.20
2019-05-10T02:01:00.067Z,12.20
2019-05-10T02:03:28.942Z,12.20
2019-05-10T02:05:57.813Z,12.10
2019-05-10T02:08:26.700Z,12.10
2019-05-10T02:10:55.585Z,12.10
2019-05-10T02:13:24.560Z,12.20
2019-05-10T02:15:53.544Z,12.20
2019-05-10T02:18:22.423Z,12.10
2019-05-10T02:20:51.394Z,12.20
2019-05-10T02:23:20.266Z,12.20
2019-05-10T02:25:49.246Z,12.20
2019-05-10T02:28:18.139Z,12.20
2019-05-10T02:30:47.013Z,12.20
2019-05-10T02:33:16.044Z,12.20
2019-05-10T02:35:44.937Z,12.20
2019-05-10T02:38:13.919Z,12.10
2019-05-10T02:40:43.016Z,12.00
2019-05-10T02:43:11.878Z,11.80
2019-05-10T02:45:40.699Z,11.70
2019-05-10T02:48:12.776Z,11.60
2019-05-10T02:50:41.753Z,11.50
2019-05-10T02:53:11.413Z,11.40
2019-05-10T02:55:41.053Z,11.40
2019-05-10T02:58:14.904Z,11.30
2019-05-10T03:00:43.684Z,11.40
2019-05-10T03:03:19.070Z,11.30
2019-05-10T03:05:49.694Z,11.30
2019-05-10T03:08:18.618Z,11.30
2019-05-10T03:10:58.597Z,11.20
2019-05-10T03:13:31.740Z,11.30
2019-05-10T03:16:04.471Z,11.20
2019-05-10T03:18:34.109Z,11.20
2019-05-10T03:21:03.432Z,11.20
2019-05-10T03:23:32.434Z,11.20
2019-05-10T03:26:01.221Z,11.20
2019-05-10T03:28:30.108Z,11.20
2019-05-10T03:30:59.078Z,11.20
2019-05-10T03:33:27.963Z,11.20
2019-05-10T03:35:56.902Z,11.20
2019-05-10T03:38:26.048Z,11.30
2019-05-10T03:44:59.939Z,11.30
2019-05-10T03:47:48.361Z,11.30
2019-05-10T03:50:29.881Z,11.30
2019-05-10T03:53:12.399Z,11.40
2019-05-10T03:55:53.919Z,11.50
2019-05-10T03:58:35.639Z,11.50
2019-05-10T04:01:17.055Z,11.50
2019-05-10T04:03:58.026Z,11.50
2019-05-10T04:06:39.618Z,11.50
2019-05-10T04:09:21.404Z,11.50
2019-05-10T04:12:02.655Z,11.50
2019-05-10T04:14:31.875Z,11.50
2019-05-10T04:17:40.739Z,11.50
2019-05-10T04:20:30.642Z,11.50
2019-05-10T04:23:22.068Z,11.60
2019-05-10T04:26:10.283Z,11.60
2019-05-10T04:31:46.798Z,11.70
2019-05-10T04:34:16.215Z,11.70
2019-05-10T04:36:45.564Z,11.70
2019-05-10T04:39:34.196Z,11.80
2019-05-10T04:42:22.779Z,11.80
2019-05-10T04:45:11.134Z,11.80
2019-05-10T04:47:59.677Z,11.90
2019-05-10T04:50:49.372Z,12.00
2019-05-10T04:53:30.227Z,12.00
2019-05-10T04:56:11.076Z,12.10
2019-05-10T04:58:51.887Z,12.10
2019-05-10T05:01:35.691Z,12.10
2019-05-10T05:04:17.437Z,12.20
2019-05-10T05:06:59.049Z,12.20
2019-05-10T05:09:39.923Z,12.30
2019-05-10T05:12:21.101Z,12.30
2019-05-10T05:14:50.936Z,12.30
2019-05-10T05:17:39.259Z,12.40
2019-05-10T05:20:08.302Z,12.50
2019-05-10T05:22:56.538Z,12.50
2019-05-10T05:25:44.977Z,12.60
2019-05-10T05:28:33.241Z,12.60
2019-05-10T05:31:21.504Z,12.70
2019-05-10T05:34:09.611Z,12.70
2019-05-10T05:36:57.916Z,13.00
2019-05-10T05:39:46.454Z,13.00
2019-05-10T05:42:34.766Z,13.10
2019-05-10T05:45:23.179Z,13.20
2019-05-10T05:48:15.965Z,13.40
2019-05-10T05:50:42.849Z,13.60
2019-05-10T05:53:35.747Z,13.70
2019-05-10T05:56:21.281Z,13.80
2019-05-10T05:59:09.645Z,13.70
2019-05-10T06:02:00.908Z,13.60
2019-05-10T06:04:48.256Z,13.60
2019-05-10T06:07:38.092Z,13.70
2019-05-10T06:10:27.705Z,13.60
2019-05-10T06:12:57.128Z,13.60
2019-05-10T06:15:29.028Z,13.50
2019-05-10T06:18:03.439Z,13.60
2019-05-10T06:20:28.819Z,13.60
2019-05-10T06:23:07.779Z,13.50
2019-05-10T06:25:50.950Z,13.50
2019-05-10T06:28:28.609Z,13.50
2019-05-10T06:31:10.921Z,13.60
2019-05-10T06:33:59.252Z,13.70
2019-05-10T06:36:47.889Z,13.80
2019-05-10T06:39:36.092Z,13.80
2019-05-10T06:42:28.948Z,13.70
2019-05-10T06:45:16.221Z,13.70
2019-05-10T06:51:02.856Z,13.90
2019-05-10T06:53:53.611Z,13.90
2019-05-10T06:56:39.349Z,13.80
2019-05-10T06:59:27.503Z,13.80
2019-05-10T07:02:20.125Z,13.90
2019-05-10T07:05:06.047Z,14.00
2019-05-10T07:08:00.512Z,14.30
2019-05-10T07:10:44.748Z,14.50
2019-05-10T07:13:33.547Z,14.50
2019-05-10T07:19:06.801Z,14.50
2019-05-10T07:21:51.084Z,14.60
2019-05-10T07:24:35.935Z,14.40
2019-05-10T07:30:24.971Z,14.20
2019-05-10T07:32:59.737Z,14.20
2019-05-10T07:35:44.945Z,14.20
2019-05-10T07:38:34.854Z,14.20
2019-05-10T07:41:26.561Z,14.30
2019-05-10T07:44:13.425Z,14.60
2019-05-10T07:47:01.559Z,14.80
2019-05-10T07:50:11.600Z,15.00
2019-05-10T07:53:00.411Z,15.20
2019-05-10T08:02:44.476Z,15.90
2019-05-10T08:05:33.445Z,15.70
2019-05-10T08:21:03.383Z,17.70
2019-05-10T08:26:46.873Z,18.10
2019-05-10T08:29:34.920Z,18.00
2019-05-10T08:32:43.954Z,18.30
2019-05-10T08:35:36.673Z,18.00
2019-05-10T08:38:28.019Z,17.10
2019-05-10T08:41:18.448Z,16.40
2019-05-10T08:44:16.679Z,16.90
2019-05-10T08:46:59.018Z,17.30
2019-05-10T08:49:46.009Z,17.90
2019-05-10T08:52:30.862Z,17.50
2019-05-10T08:55:12.389Z,17.30
2019-05-10T08:57:44.403Z,17.30
2019-05-10T09:00:48.938Z,17.10
2019-05-10T09:03:23.928Z,16.60
2019-05-10T09:06:16.783Z,16.10
2019-05-10T09:11:18.972Z,16.20
2019-05-10T09:13:48.872Z,16.50
2019-05-10T09:16:43.394Z,16.70
2019-05-10T09:19:39.265Z,16.50
2019-05-10T09:22:24.065Z,16.80
2019-05-10T09:25:30.943Z,16.70
2019-05-10T09:28:21.681Z,16.60
2019-05-10T09:31:18.923Z,16.50
2019-05-10T09:34:02.452Z,16.50
2019-05-10T09:36:50.264Z,16.50
2019-05-10T09:39:38.561Z,16.30
2019-05-10T09:42:35.039Z,16.30
2019-05-10T09:44:58.104Z,16.10
2019-05-10T09:47:49.945Z,15.90
2019-05-10T09:50:42.068Z,15.90
2019-05-10T09:53:30.470Z,15.90
2019-05-10T09:56:18.673Z,15.90
2019-05-10T09:59:08.381Z,15.60
2019-05-10T10:04:13.581Z,15.00
2019-05-10T10:06:48.056Z,14.90
2019-05-10T10:09:37.299Z,14.90
2019-05-10T10:12:23.409Z,14.80
2019-05-10T10:15:18.733Z,14.80
2019-05-10T10:18:02.237Z,14.70
2019-05-10T10:20:45.163Z,15.00
2019-05-10T10:23:30.701Z,15.90
2019-05-10T10:32:09.212Z,17.60
2019-05-10T10:34:54.106Z,17.40
2019-05-10T10:37:38.877Z,17.80
2019-05-10T10:40:28.025Z,17.20
2019-05-10T10:43:18.003Z,16.80
2019-05-10T10:46:11.882Z,16.70
2019-05-10T10:48:56.833Z,16.50
2019-05-10T10:51:47.247Z,16.60
2019-05-10T10:54:37.402Z,17.00
2019-05-10T10:57:08.042Z,17.60
2019-05-10T10:59:37.532Z,17.30
2019-05-10T11:02:29.007Z,17.20
2019-05-10T11:04:40.729Z,17.10
2019-05-10T11:07:12.572Z,17.00
2019-05-10T11:10:08.380Z,17.00
2019-05-10T11:12:51.287Z,16.80
2019-05-10T11:15:43.188Z,16.80
2019-05-10T11:18:31.874Z,16.70
2019-05-10T11:21:14.747Z,16.50
2019-05-10T11:23:56.084Z,16.50
2019-05-10T11:26:37.043Z,16.40
2019-05-10T11:41:07.112Z,16.80
2019-05-10T11:43:45.368Z,17.20
2019-05-10T12:36:13.500Z,15.20
2019-05-10T12:48:35.841Z,12.60
2019-05-10T12:51:11.538Z,12.40
2019-05-10T12:53:36.807Z,12.30
2019-05-10T12:56:06.663Z,12.30
2019-05-10T12:58:35.569Z,12.40
2019-05-10T13:01:04.584Z,12.50
2019-05-10T13:03:33.752Z,12.60
2019-05-10T13:06:02.800Z,12.60
2019-05-10T13:08:31.707Z,12.70
2019-05-10T13:11:00.559Z,12.70
2019-05-10T13:13:30.165Z,12.80
2019-05-10T13:16:03.431Z,12.80
2019-05-10T13:21:00.685Z,13.00
2019-05-10T13:23:29.636Z,13.20
2019-05-10T13:25:58.662Z,13.40
2019-05-10T13:28:27.685Z,13.60
2019-05-10T13:30:59.741Z,13.70
2019-05-10T13:33:29.323Z,13.80
2019-05-10T13:35:58.567Z,13.90
2019-05-10T13:38:27.886Z,14.00
2019-05-10T13:40:56.823Z,14.00
2019-05-10T13:43:27.053Z,14.20
2019-05-10T13:45:56.235Z,14.30
2019-05-10T13:48:26.370Z,14.40
2019-05-10T13:50:55.985Z,14.60
2019-05-10T13:55:53.405Z,14.90
2019-05-10T13:58:22.334Z,15.40
2019-05-10T14:00:51.261Z,16.00
2019-05-10T14:03:20.162Z,16.50
2019-05-10T14:10:49.245Z,17.50
2019-05-10T14:15:46.017Z,17.80
2019-05-10T14:18:15.058Z,17.70
2019-05-10T14:20:43.956Z,17.60
2019-05-10T14:23:12.770Z,17.50
2019-05-10T14:25:41.634Z,17.40
2019-05-10T14:28:15.841Z,17.40
2019-05-10T14:30:41.118Z,17.30
2019-05-10T14:33:14.859Z,17.20
2019-05-10T14:35:40.774Z,17.00
2019-05-10T14:38:10.704Z,16.70
2019-05-10T14:40:39.774Z,16.60
2019-05-10T14:43:08.699Z,16.60
2019-05-10T14:45:37.612Z,16.80
2019-05-10T14:48:06.626Z,16.80
2019-05-10T14:50:35.672Z,16.90
2019-05-10T14:53:04.580Z,16.80
2019-05-10T14:55:36.874Z,16.60
2019-05-10T14:58:03.993Z,16.60
2019-05-10T15:00:32.862Z,16.60
2019-05-10T15:03:03.632Z,16.50
2019-05-10T15:05:32.456Z,16.40
2019-05-10T15:08:01.328Z,16.40
2019-05-10T15:10:33.126Z,16.20
2019-05-10T15:13:00.844Z,16.20
2019-05-10T15:15:31.188Z,16.20
2019-05-10T15:18:01.850Z,16.10
2019-05-10T15:20:30.932Z,16.10
2019-05-10T15:22:59.854Z,16.20
2019-05-10T15:25:28.842Z,16.10
2019-05-10T15:28:00.279Z,15.70
2019-05-10T15:30:28.437Z,15.40
2019-05-10T15:32:57.383Z,15.30
2019-05-10T15:42:52.200Z,14.60
2019-05-10T15:45:21.284Z,14.70
2019-05-10T15:47:51.881Z,14.80
2019-05-10T15:50:21.005Z,14.90
2019-05-10T15:52:49.904Z,15.40
2019-05-10T15:55:26.872Z,15.60
2019-05-10T15:57:51.731Z,15.60
2019-05-10T16:00:24.809Z,15.50
2019-05-10T16:02:53.425Z,15.40
2019-05-10T16:05:29.484Z,15.10
2019-05-10T16:07:53.228Z,14.70
2019-05-10T16:10:28.262Z,14.40
2019-05-10T16:12:52.785Z,14.50
2019-05-10T16:15:21.673Z,14.60
2019-05-10T16:17:53.622Z,14.70
2019-05-10T16:20:21.052Z,14.70
2019-05-10T16:22:49.963Z,14.90
2019-05-10T16:25:18.815Z,14.90
2019-05-10T16:27:47.747Z,14.80
2019-05-10T16:30:20.070Z,14.50
2019-05-10T16:32:47.498Z,14.40
2019-05-10T16:37:44.855Z,14.10
2019-05-10T16:40:14.224Z,14.20
2019-05-10T16:42:43.230Z,14.30
2019-05-10T16:45:12.517Z,14.40
2019-05-10T16:47:41.421Z,14.50
2019-05-10T16:50:10.817Z,14.50
2019-05-10T16:52:39.740Z,14.50
2019-05-10T16:55:09.825Z,14.40
2019-05-10T16:57:39.497Z,14.40
2019-05-10T17:00:10.593Z,14.30
2019-05-10T17:02:42.070Z,14.10
2019-05-10T17:05:15.341Z,14.00
2019-05-10T17:07:41.974Z,14.00
2019-05-10T17:10:11.662Z,14.00
2019-05-10T17:12:40.862Z,14.10
2019-05-10T17:15:09.919Z,14.20
2019-05-10T17:17:39.209Z,14.20
2019-05-10T17:20:14.280Z,14.20
2019-05-10T17:22:39.984Z,14.10
2019-05-10T17:25:09.054Z,14.00
2019-05-10T17:30:07.328Z,13.80
2019-05-10T17:42:41.314Z,13.70
2019-05-10T17:45:07.219Z,13.70
2019-05-10T17:47:36.109Z,13.70
2019-05-10T17:50:05.781Z,13.70
2019-05-10T17:52:34.625Z,13.80
2019-05-10T17:55:04.027Z,13.70
2019-05-10T18:09:56.764Z,13.40
2019-05-10T18:12:27.124Z,13.20
2019-05-10T18:14:57.687Z,13.10
2019-05-10T22:06:54.532Z,10.10
2019-05-10T22:15:46.628Z,9.90
2019-05-10T22:18:28.054Z,10.00
2019-05-10T22:21:09.760Z,9.90
2019-05-10T22:23:52.423Z,9.90
2019-05-10T22:29:16.499Z,9.80
2019-05-10T22:31:57.802Z,9.70
2019-05-10T22:34:27.488Z,9.60
2019-05-10T22:37:16.227Z,9.50
2019-05-10T22:40:05.074Z,9.50
2019-05-10T22:42:53.724Z,9.40
2019-05-10T22:46:20.987Z,9.40
2019-05-10T22:49:09.337Z,9.30
2019-05-10T22:52:07.703Z,9.20
2019-05-10T22:54:56.289Z,9.20
2019-05-10T23:01:17.660Z,9.00
2019-05-10T23:04:06.318Z,9.10
2019-05-10T23:06:55.659Z,9.10
2019-05-10T23:09:49.874Z,9.20
2019-05-10T23:12:38.689Z,9.30
2019-05-10T23:16:00.046Z,9.30
2019-05-10T23:25:09.908Z,9.30
2019-05-10T23:27:48.420Z,9.30
2019-05-10T23:30:37.262Z,9.40
2019-05-10T23:33:26.676Z,9.40
2019-05-10T23:39:40.330Z,9.40
2019-05-10T23:46:09.642Z,9.40
2019-05-10T23:48:47.343Z,9.40
2019-05-10T23:52:14.276Z,9.40
2019-05-10T23:54:55.264Z,9.40
2019-05-10T23:57:36.900Z,9.20
